sensor_id;sensor_type;location;lat;lon;timestamp;pressure;altitude;pressure_sealevel;temperature;humidity
15568;BME280;7885;42.596;23.044;2022-12-18T00:00:45;93655.31;;;8.62;100.00
15568;BME280;7885;42.596;23.044;2022-12-18T00:03:13;93657.72;;;8.68;100.00
15568;BME280;7885;42.596;23.044;2022-12-18T00:05:47;93665.44;;;8.66;100.00
15568;BME280;7885;42.596;23.044;2022-12-18T00:08:14;93654.97;;;8.64;100.00
15568;BME280;7885;42.596;23.044;2022-12-18T00:10:41;93660.00;;;8.66;99.84
15568;BME280;7885;42.596;23.044;2022-12-18T00:13:09;93669.66;;;8.63;99.97
15568;BME280;7885;42.596;23.044;2022-12-18T00:15:36;93676.66;;;8.64;99.72
15568;BME280;7885;42.596;23.044;2022-12-18T00:18:04;93675.81;;;8.60;99.41
15568;BME280;7885;42.596;23.044;2022-12-18T00:20:32;93672.31;;;8.59;99.01
15568;BME280;7885;42.596;23.044;2022-12-18T00:23:03;93678.47;;;8.56;99.39
15568;BME280;7885;42.596;23.044;2022-12-18T00:25:32;93687.03;;;8.58;99.70
15568;BME280;7885;42.596;23.044;2022-12-18T00:27:58;93655.69;;;8.38;98.96
15568;BME280;7885;42.596;23.044;2022-12-18T00:30:25;93668.22;;;8.46;98.66
15568;BME280;7885;42.596;23.044;2022-12-18T00:32:52;93678.06;;;8.54;98.65
15568;BME280;7885;42.596;23.044;2022-12-18T00:35:19;93692.41;;;8.55;98.49
15568;BME280;7885;42.596;23.044;2022-12-18T00:37:46;93697.94;;;8.62;98.49
15568;BME280;7885;42.596;23.044;2022-12-18T00:40:14;93696.00;;;8.62;98.00
15568;BME280;7885;42.596;23.044;2022-12-18T00:42:40;93695.13;;;8.55;97.58
15568;BME280;7885;42.596;23.044;2022-12-18T00:45:22;93685.69;;;8.49;98.13
15568;BME280;7885;42.596;23.044;2022-12-18T00:47:51;93690.72;;;8.47;97.26
15568;BME280;7885;42.596;23.044;2022-12-18T00:50:18;93698.81;;;8.43;97.19
15568;BME280;7885;42.596;23.044;2022-12-18T00:52:45;93704.94;;;8.40;97.19
15568;BME280;7885;42.596;23.044;2022-12-18T00:55:13;93698.03;;;8.24;96.72
15568;BME280;7885;42.596;23.044;2022-12-18T00:57:40;93704.16;;;8.21;97.22
15568;BME280;7885;42.596;23.044;2022-12-18T01:00:09;93709.16;;;8.19;97.82
15568;BME280;7885;42.596;23.044;2022-12-18T01:02:37;93698.56;;;8.10;98.09
15568;BME280;7885;42.596;23.044;2022-12-18T01:05:04;93716.31;;;8.07;98.70
15568;BME280;7885;42.596;23.044;2022-12-18T01:07:31;93710.81;;;8.04;99.46
15568;BME280;7885;42.596;23.044;2022-12-18T01:09:58;93716.31;;;8.07;99.17
15568;BME280;7885;42.596;23.044;2022-12-18T01:12:26;93716.97;;;8.01;98.84
15568;BME280;7885;42.596;23.044;2022-12-18T01:14:52;93720.19;;;8.06;98.88
15568;BME280;7885;42.596;23.044;2022-12-18T01:17:19;93709.34;;;8.06;99.02
15568;BME280;7885;42.596;23.044;2022-12-18T01:19:46;93718.69;;;8.09;98.13
15568;BME280;7885;42.596;23.044;2022-12-18T01:22:13;93677.13;;;7.82;99.16
15568;BME280;7885;42.596;23.044;2022-12-18T01:24:39;93703.06;;;8.02;99.58
15568;BME280;7885;42.596;23.044;2022-12-18T01:27:06;93716.38;;;8.11;98.93
15568;BME280;7885;42.596;23.044;2022-12-18T01:29:34;93720.72;;;8.16;98.57
15568;BME280;7885;42.596;23.044;2022-12-18T01:32:01;93716.09;;;8.16;98.72
15568;BME280;7885;42.596;23.044;2022-12-18T01:34:27;93721.09;;;8.14;98.06
15568;BME280;7885;42.596;23.044;2022-12-18T01:36:54;93710.88;;;8.07;97.82
15568;BME280;7885;42.596;23.044;2022-12-18T01:39:21;93728.16;;;8.19;97.59
15568;BME280;7885;42.596;23.044;2022-12-18T01:41:48;93690.09;;;7.92;97.21
15568;BME280;7885;42.596;23.044;2022-12-18T01:44:59;93725.16;;;8.04;96.94
15568;BME280;7885;42.596;23.044;2022-12-18T01:47:30;93738.78;;;8.08;96.59
15568;BME280;7885;42.596;23.044;2022-12-18T01:50:00;93740.94;;;7.99;96.45
15568;BME280;7885;42.596;23.044;2022-12-18T01:52:29;93738.66;;;8.01;97.27
15568;BME280;7885;42.596;23.044;2022-12-18T01:54:57;93733.81;;;7.91;96.56
15568;BME280;7885;42.596;23.044;2022-12-18T01:57:25;93731.97;;;7.76;96.07
15568;BME280;7885;42.596;23.044;2022-12-18T01:59:57;93746.81;;;7.82;97.07
15568;BME280;7885;42.596;23.044;2022-12-18T02:02:26;93749.84;;;7.80;96.67
15568;BME280;7885;42.596;23.044;2022-12-18T02:04:53;93727.16;;;7.69;96.90
15568;BME280;7885;42.596;23.044;2022-12-18T02:07:27;93733.53;;;7.77;96.39
15568;BME280;7885;42.596;23.044;2022-12-18T02:10:02;93751.34;;;7.78;96.63
15568;BME280;7885;42.596;23.044;2022-12-18T02:12:34;93755.91;;;7.74;97.13
15568;BME280;7885;42.596;23.044;2022-12-18T02:15:12;93746.56;;;7.71;97.00
15568;BME280;7885;42.596;23.044;2022-12-18T02:17:43;93753.66;;;7.76;96.88
15568;BME280;7885;42.596;23.044;2022-12-18T02:20:17;93753.28;;;7.77;96.76
15568;BME280;7885;42.596;23.044;2022-12-18T02:22:55;93754.84;;;7.78;96.51
15568;BME280;7885;42.596;23.044;2022-12-18T02:25:34;93753.66;;;7.76;97.23
15568;BME280;7885;42.596;23.044;2022-12-18T02:28:12;93761.91;;;7.83;97.36
15568;BME280;7885;42.596;23.044;2022-12-18T02:30:41;93761.13;;;7.82;97.09
15568;BME280;7885;42.596;23.044;2022-12-18T02:33:10;93762.28;;;7.81;97.51
15568;BME280;7885;42.596;23.044;2022-12-18T02:35:39;93766.25;;;7.87;97.53
15568;BME280;7885;42.596;23.044;2022-12-18T02:38:07;93769.50;;;7.93;97.10
15568;BME280;7885;42.596;23.044;2022-12-18T02:40:34;93762.75;;;7.87;96.75
15568;BME280;7885;42.596;23.044;2022-12-18T02:43:06;93788.09;;;7.94;96.25
15568;BME280;7885;42.596;23.044;2022-12-18T02:45:34;93759.91;;;7.80;96.03
15568;BME280;7885;42.596;23.044;2022-12-18T02:48:01;93774.13;;;7.92;94.89
15568;BME280;7885;42.596;23.044;2022-12-18T02:50:35;93748.69;;;7.62;94.75
15568;BME280;7885;42.596;23.044;2022-12-18T02:53:10;93780.78;;;7.79;95.05
15568;BME280;7885;42.596;23.044;2022-12-18T02:55:51;93784.28;;;7.80;95.04
15568;BME280;7885;42.596;23.044;2022-12-18T02:58:27;93782.16;;;7.70;94.17
15568;BME280;7885;42.596;23.044;2022-12-18T03:01:02;93783.50;;;7.60;94.95
15568;BME280;7885;42.596;23.044;2022-12-18T03:03:35;93793.53;;;7.59;94.57
15568;BME280;7885;42.596;23.044;2022-12-18T03:06:08;93789.03;;;7.48;94.72
15568;BME280;7885;42.596;23.044;2022-12-18T03:08:39;93762.63;;;7.26;94.45
15568;BME280;7885;42.596;23.044;2022-12-18T03:11:09;93798.22;;;7.43;95.10
15568;BME280;7885;42.596;23.044;2022-12-18T03:13:39;93804.06;;;7.45;95.54
15568;BME280;7885;42.596;23.044;2022-12-18T03:16:11;93802.25;;;7.34;94.88
15568;BME280;7885;42.596;23.044;2022-12-18T03:18:42;93811.19;;;7.34;95.20
15568;BME280;7885;42.596;23.044;2022-12-18T03:21:13;93820.69;;;7.28;95.00
15568;BME280;7885;42.596;23.044;2022-12-18T03:23:44;93817.88;;;7.25;95.09
15568;BME280;7885;42.596;23.044;2022-12-18T03:26:16;93821.38;;;7.25;95.32
15568;BME280;7885;42.596;23.044;2022-12-18T03:28:47;93822.00;;;7.19;95.26
15568;BME280;7885;42.596;23.044;2022-12-18T03:31:19;93820.44;;;7.18;95.20
15568;BME280;7885;42.596;23.044;2022-12-18T03:33:51;93824.63;;;7.15;95.16
15568;BME280;7885;42.596;23.044;2022-12-18T03:36:18;93832.31;;;7.13;95.57
15568;BME280;7885;42.596;23.044;2022-12-18T03:38:45;93843.56;;;7.15;95.95
15568;BME280;7885;42.596;23.044;2022-12-18T03:41:17;93824.72;;;7.03;95.24
15568;BME280;7885;42.596;23.044;2022-12-18T03:43:49;93848.19;;;7.15;95.98
15568;BME280;7885;42.596;23.044;2022-12-18T03:46:25;93851.28;;;7.13;96.08
15568;BME280;7885;42.596;23.044;2022-12-18T03:48:59;93856.69;;;7.13;95.33
15568;BME280;7885;42.596;23.044;2022-12-18T03:51:30;93852.66;;;7.07;95.32
15568;BME280;7885;42.596;23.044;2022-12-18T03:54:02;93856.22;;;7.11;95.33
15568;BME280;7885;42.596;23.044;2022-12-18T03:56:33;93855.72;;;7.05;95.03
15568;BME280;7885;42.596;23.044;2022-12-18T03:59:03;93855.81;;;7.09;94.62
15568;BME280;7885;42.596;23.044;2022-12-18T04:01:34;93855.53;;;6.98;94.46
15568;BME280;7885;42.596;23.044;2022-12-18T04:04:04;93857.88;;;7.00;94.53
15568;BME280;7885;42.596;23.044;2022-12-18T04:06:33;93864.88;;;7.01;94.26
15568;BME280;7885;42.596;23.044;2022-12-18T04:09:00;93866.38;;;6.98;94.88
15568;BME280;7885;42.596;23.044;2022-12-18T04:11:27;93869.16;;;7.02;94.49
15568;BME280;7885;42.596;23.044;2022-12-18T04:13:55;93874.56;;;7.02;94.64
15568;BME280;7885;42.596;23.044;2022-12-18T04:16:22;93870.75;;;7.03;94.62
15568;BME280;7885;42.596;23.044;2022-12-18T04:18:50;93873.28;;;6.96;94.63
15568;BME280;7885;42.596;23.044;2022-12-18T04:21:17;93874.13;;;7.00;94.35
15568;BME280;7885;42.596;23.044;2022-12-18T04:23:44;93866.59;;;6.93;94.92
15568;BME280;7885;42.596;23.044;2022-12-18T04:26:11;93886.81;;;6.96;94.56
15568;BME280;7885;42.596;23.044;2022-12-18T04:28:38;93892.53;;;6.94;94.68
15568;BME280;7885;42.596;23.044;2022-12-18T04:31:04;93897.16;;;6.94;94.84
15568;BME280;7885;42.596;23.044;2022-12-18T04:33:31;93885.47;;;6.90;94.44
15568;BME280;7885;42.596;23.044;2022-12-18T04:35:59;93888.44;;;6.85;94.23
15568;BME280;7885;42.596;23.044;2022-12-18T04:38:26;93896.97;;;6.87;94.31
15568;BME280;7885;42.596;23.044;2022-12-18T04:40:52;93895.84;;;6.88;93.94
15568;BME280;7885;42.596;23.044;2022-12-18T04:43:19;93895.25;;;6.79;94.54
15568;BME280;7885;42.596;23.044;2022-12-18T04:45:46;93904.31;;;6.86;94.11
15568;BME280;7885;42.596;23.044;2022-12-18T04:48:13;93903.78;;;6.81;93.93
15568;BME280;7885;42.596;23.044;2022-12-18T04:50:39;93913.66;;;6.89;93.94
15568;BME280;7885;42.596;23.044;2022-12-18T04:53:07;93910.97;;;6.89;93.96
15568;BME280;7885;42.596;23.044;2022-12-18T04:55:34;93899.06;;;6.78;93.61
15568;BME280;7885;42.596;23.044;2022-12-18T04:58:01;93915.81;;;6.83;93.23
15568;BME280;7885;42.596;23.044;2022-12-18T05:00:27;93922.03;;;6.84;93.30
15568;BME280;7885;42.596;23.044;2022-12-18T05:02:54;93923.16;;;6.83;93.19
15568;BME280;7885;42.596;23.044;2022-12-18T05:05:21;93924.53;;;6.77;92.56
15568;BME280;7885;42.596;23.044;2022-12-18T05:07:47;93932.75;;;6.80;93.20
15568;BME280;7885;42.596;23.044;2022-12-18T05:10:16;93921.22;;;6.68;92.99
15568;BME280;7885;42.596;23.044;2022-12-18T05:12:42;93939.22;;;6.76;93.00
15568;BME280;7885;42.596;23.044;2022-12-18T05:15:37;93951.69;;;6.80;93.16
15568;BME280;7885;42.596;23.044;2022-12-18T05:18:04;93949.00;;;6.80;92.74
15568;BME280;7885;42.596;23.044;2022-12-18T05:20:31;93966.44;;;6.83;91.71
15568;BME280;7885;42.596;23.044;2022-12-18T05:22:58;93962.97;;;6.82;91.64
15568;BME280;7885;42.596;23.044;2022-12-18T05:25:25;93962.31;;;6.73;91.58
15568;BME280;7885;42.596;23.044;2022-12-18T05:27:51;93967.72;;;6.73;90.47
15568;BME280;7885;42.596;23.044;2022-12-18T05:30:18;93969.59;;;6.57;90.67
15568;BME280;7885;42.596;23.044;2022-12-18T05:32:46;93979.63;;;6.56;91.55
15568;BME280;7885;42.596;23.044;2022-12-18T05:35:13;93977.19;;;6.51;91.77
15568;BME280;7885;42.596;23.044;2022-12-18T05:37:39;93984.34;;;6.59;91.47
15568;BME280;7885;42.596;23.044;2022-12-18T05:40:07;93989.31;;;6.57;91.37
15568;BME280;7885;42.596;23.044;2022-12-18T05:42:34;93994.97;;;6.52;91.44
15568;BME280;7885;42.596;23.044;2022-12-18T05:45:01;93994.97;;;6.52;91.42
15568;BME280;7885;42.596;23.044;2022-12-18T05:47:27;93981.22;;;6.45;91.53
15568;BME280;7885;42.596;23.044;2022-12-18T05:49:56;93998.72;;;6.48;91.43
15568;BME280;7885;42.596;23.044;2022-12-18T05:52:23;94007.94;;;6.47;91.05
15568;BME280;7885;42.596;23.044;2022-12-18T05:54:50;94011.75;;;6.46;90.94
15568;BME280;7885;42.596;23.044;2022-12-18T05:57:16;94000.63;;;6.47;91.94
15568;BME280;7885;42.596;23.044;2022-12-18T05:59:43;94021.00;;;6.45;91.38
15568;BME280;7885;42.596;23.044;2022-12-18T06:02:10;94018.66;;;6.43;91.65
15568;BME280;7885;42.596;23.044;2022-12-18T06:04:36;94017.31;;;6.37;90.51
15568;BME280;7885;42.596;23.044;2022-12-18T06:07:05;94019.34;;;6.40;91.97
15568;BME280;7885;42.596;23.044;2022-12-18T06:09:31;94018.66;;;6.43;91.25
15568;BME280;7885;42.596;23.044;2022-12-18T06:11:58;94034.66;;;6.36;90.12
15568;BME280;7885;42.596;23.044;2022-12-18T06:14:25;94032.19;;;6.31;90.65
15568;BME280;7885;42.596;23.044;2022-12-18T06:16:51;94037.47;;;6.28;91.14
15568;BME280;7885;42.596;23.044;2022-12-18T06:19:18;94027.44;;;6.28;91.34
15568;BME280;7885;42.596;23.044;2022-12-18T06:21:45;94015.75;;;6.24;90.22
15568;BME280;7885;42.596;23.044;2022-12-18T06:24:13;94029.94;;;6.33;90.84
15568;BME280;7885;42.596;23.044;2022-12-18T06:26:40;94039.28;;;6.36;90.63
15568;BME280;7885;42.596;23.044;2022-12-18T06:29:06;94045.47;;;6.36;90.37
15568;BME280;7885;42.596;23.044;2022-12-18T06:31:33;94033.75;;;6.32;90.46
15568;BME280;7885;42.596;23.044;2022-12-18T06:34:02;94048.63;;;6.38;90.28
15568;BME280;7885;42.596;23.044;2022-12-18T06:36:29;94049.06;;;6.40;90.52
15568;BME280;7885;42.596;23.044;2022-12-18T06:38:56;94040.63;;;6.30;89.95
15568;BME280;7885;42.596;23.044;2022-12-18T06:41:24;94059.00;;;6.36;90.00
15568;BME280;7885;42.596;23.044;2022-12-18T06:43:51;94061.44;;;6.41;89.81
15568;BME280;7885;42.596;23.044;2022-12-18T06:46:18;94067.22;;;6.40;89.16
15568;BME280;7885;42.596;23.044;2022-12-18T06:48:47;94068.00;;;6.40;89.08
15568;BME280;7885;42.596;23.044;2022-12-18T06:51:16;94055.16;;;6.37;89.83
15568;BME280;7885;42.596;23.044;2022-12-18T06:53:43;94045.69;;;6.43;89.51
15568;BME280;7885;42.596;23.044;2022-12-18T06:56:09;94071.34;;;6.62;88.35
15568;BME280;7885;42.596;23.044;2022-12-18T06:58:38;94065.72;;;6.54;88.50
15568;BME280;7885;42.596;23.044;2022-12-18T07:01:06;94072.78;;;6.71;88.44
15568;BME280;7885;42.596;23.044;2022-12-18T07:03:34;94075.34;;;6.80;88.08
15568;BME280;7885;42.596;23.044;2022-12-18T07:06:00;94066.75;;;6.90;87.89
15568;BME280;7885;42.596;23.044;2022-12-18T07:08:28;94075.09;;;6.97;87.41
15568;BME280;7885;42.596;23.044;2022-12-18T07:10:55;94067.66;;;6.94;86.79
15568;BME280;7885;42.596;23.044;2022-12-18T07:13:22;94079.16;;;7.03;86.50
15568;BME280;7885;42.596;23.044;2022-12-18T07:15:50;94086.31;;;7.11;86.71
15568;BME280;7885;42.596;23.044;2022-12-18T07:18:17;94084.59;;;7.19;85.24
15568;BME280;7885;42.596;23.044;2022-12-18T07:20:44;94095.97;;;7.24;85.30
15568;BME280;7885;42.596;23.044;2022-12-18T07:23:11;94099.13;;;7.26;85.05
15568;BME280;7885;42.596;23.044;2022-12-18T07:25:38;94090.56;;;7.24;84.70
15568;BME280;7885;42.596;23.044;2022-12-18T07:28:05;94090.44;;;7.21;84.94
15568;BME280;7885;42.596;23.044;2022-12-18T07:30:31;94074.59;;;7.07;84.57
15568;BME280;7885;42.596;23.044;2022-12-18T07:33:00;94074.84;;;7.02;84.98
15568;BME280;7885;42.596;23.044;2022-12-18T07:35:26;94099.31;;;7.05;85.89
15568;BME280;7885;42.596;23.044;2022-12-18T07:37:53;94105.06;;;7.04;86.17
15568;BME280;7885;42.596;23.044;2022-12-18T07:40:20;94098.00;;;6.87;85.59
15568;BME280;7885;42.596;23.044;2022-12-18T07:42:46;94100.13;;;6.94;85.52
15568;BME280;7885;42.596;23.044;2022-12-18T07:45:13;94092.75;;;6.79;85.88
15568;BME280;7885;42.596;23.044;2022-12-18T07:47:40;94092.50;;;6.84;86.08
15568;BME280;7885;42.596;23.044;2022-12-18T07:50:09;94102.72;;;6.90;86.29
15568;BME280;7885;42.596;23.044;2022-12-18T07:52:36;94102.19;;;6.85;85.90
15568;BME280;7885;42.596;23.044;2022-12-18T07:55:03;94104.44;;;6.83;85.18
15568;BME280;7885;42.596;23.044;2022-12-18T07:57:30;94101.06;;;6.86;86.03
15568;BME280;7885;42.596;23.044;2022-12-18T07:59:56;94116.16;;;6.87;86.28
15568;BME280;7885;42.596;23.044;2022-12-18T08:02:23;94118.97;;;6.90;85.66
15568;BME280;7885;42.596;23.044;2022-12-18T08:04:50;94116.63;;;6.89;85.81
15568;BME280;7885;42.596;23.044;2022-12-18T08:10:39;94129.13;;;6.81;86.02
15568;BME280;7885;42.596;23.044;2022-12-18T08:13:06;94126.75;;;6.80;87.01
15568;BME280;7885;42.596;23.044;2022-12-18T08:15:33;94128.94;;;6.74;86.46
15568;BME280;7885;42.596;23.044;2022-12-18T08:17:59;94136.25;;;6.74;87.17
15568;BME280;7885;42.596;23.044;2022-12-18T08:20:26;94129.16;;;6.69;86.17
15568;BME280;7885;42.596;23.044;2022-12-18T08:22:53;94141.00;;;6.52;85.84
15568;BME280;7885;42.596;23.044;2022-12-18T08:25:20;94124.22;;;6.35;86.63
15568;BME280;7885;42.596;23.044;2022-12-18T08:27:48;94140.78;;;6.45;86.74
15568;BME280;7885;42.596;23.044;2022-12-18T08:30:15;94148.66;;;6.50;86.50
15568;BME280;7885;42.596;23.044;2022-12-18T08:32:41;94142.69;;;6.57;87.18
15568;BME280;7885;42.596;23.044;2022-12-18T08:35:09;94160.84;;;6.44;86.72
15568;BME280;7885;42.596;23.044;2022-12-18T08:37:37;94149.00;;;6.49;86.86
15568;BME280;7885;42.596;23.044;2022-12-18T08:40:05;94157.34;;;6.56;86.26
15568;BME280;7885;42.596;23.044;2022-12-18T08:42:32;94149.81;;;6.62;85.75
15568;BME280;7885;42.596;23.044;2022-12-18T08:45:17;94151.56;;;6.70;86.54
15568;BME280;7885;42.596;23.044;2022-12-18T08:47:44;94152.59;;;6.77;86.85
15568;BME280;7885;42.596;23.044;2022-12-18T08:50:11;94154.41;;;6.85;86.55
15568;BME280;7885;42.596;23.044;2022-12-18T08:52:38;94111.34;;;6.68;85.94
15568;BME280;7885;42.596;23.044;2022-12-18T08:55:06;94158.06;;;7.05;86.11
15568;BME280;7885;42.596;23.044;2022-12-18T08:57:33;94158.63;;;7.10;85.18
15568;BME280;7885;42.596;23.044;2022-12-18T09:00:00;94157.38;;;7.08;85.16
15568;BME280;7885;42.596;23.044;2022-12-18T09:02:28;94152.66;;;7.05;85.76
15568;BME280;7885;42.596;23.044;2022-12-18T09:04:54;94162.22;;;7.15;84.50
15568;BME280;7885;42.596;23.044;2022-12-18T09:07:21;94151.28;;;7.11;85.24
15568;BME280;7885;42.596;23.044;2022-12-18T09:09:48;94157.84;;;7.10;84.96
15568;BME280;7885;42.596;23.044;2022-12-18T09:12:14;94150.38;;;7.07;84.58
15568;BME280;7885;42.596;23.044;2022-12-18T09:14:41;94161.78;;;7.13;85.22
15568;BME280;7885;42.596;23.044;2022-12-18T09:17:08;94158.72;;;7.14;85.19
15568;BME280;7885;42.596;23.044;2022-12-18T09:19:36;94156.13;;;7.18;84.19
15568;BME280;7885;42.596;23.044;2022-12-18T09:22:02;94156.22;;;7.21;84.37
15568;BME280;7885;42.596;23.044;2022-12-18T09:24:29;94149.47;;;7.15;84.03
15568;BME280;7885;42.596;23.044;2022-12-18T09:26:56;94163.75;;;7.28;84.41
15568;BME280;7885;42.596;23.044;2022-12-18T09:29:23;94165.00;;;7.30;83.06
15568;BME280;7885;42.596;23.044;2022-12-18T09:31:49;94153.72;;;7.28;84.25
15568;BME280;7885;42.596;23.044;2022-12-18T09:34:16;94155.19;;;7.26;83.19
15568;BME280;7885;42.596;23.044;2022-12-18T09:36:44;94161.84;;;7.28;83.30
15568;BME280;7885;42.596;23.044;2022-12-18T09:39:11;94165.69;;;7.27;82.40
15568;BME280;7885;42.596;23.044;2022-12-18T09:41:43;94163.44;;;7.29;82.93
15568;BME280;7885;42.596;23.044;2022-12-18T09:44:16;94109.84;;;6.95;82.37
15568;BME280;7885;42.596;23.044;2022-12-18T09:46:48;94153.50;;;7.33;82.66
15568;BME280;7885;42.596;23.044;2022-12-18T09:49:18;94160.56;;;7.38;82.23
15568;BME280;7885;42.596;23.044;2022-12-18T09:51:51;94152.00;;;7.36;81.69
15568;BME280;7885;42.596;23.044;2022-12-18T09:54:21;94156.41;;;7.40;81.74
15568;BME280;7885;42.596;23.044;2022-12-18T09:56:49;94148.47;;;7.47;81.53
15568;BME280;7885;42.596;23.044;2022-12-18T09:59:21;94158.81;;;7.57;80.66
15568;BME280;7885;42.596;23.044;2022-12-18T10:01:49;94144.69;;;7.64;80.67
15568;BME280;7885;42.596;23.044;2022-12-18T10:04:16;94124.03;;;7.59;79.82
15568;BME280;7885;42.596;23.044;2022-12-18T10:06:49;94139.59;;;7.62;79.57
15568;BME280;7885;42.596;23.044;2022-12-18T10:09:26;94127.91;;;7.74;79.68
15568;BME280;7885;42.596;23.044;2022-12-18T10:12:00;94126.94;;;7.67;79.39
15568;BME280;7885;42.596;23.044;2022-12-18T10:14:34;94145.97;;;7.82;79.00
15568;BME280;7885;42.596;23.044;2022-12-18T10:17:07;94149.19;;;7.88;77.50
15568;BME280;7885;42.596;23.044;2022-12-18T10:19:42;94156.44;;;7.84;78.06
15568;BME280;7885;42.596;23.044;2022-12-18T10:22:23;94144.66;;;7.92;77.86
15568;BME280;7885;42.596;23.044;2022-12-18T10:24:56;94147.75;;;8.06;76.66
15568;BME280;7885;42.596;23.044;2022-12-18T10:27:26;94139.34;;;8.11;77.05
15568;BME280;7885;42.596;23.044;2022-12-18T10:29:56;94140.50;;;8.10;75.98
15568;BME280;7885;42.596;23.044;2022-12-18T10:32:25;94147.31;;;8.20;76.69
15568;BME280;7885;42.596;23.044;2022-12-18T10:34:54;94143.81;;;8.19;75.61
15568;BME280;7885;42.596;23.044;2022-12-18T10:37:24;94143.81;;;8.19;75.23
15568;BME280;7885;42.596;23.044;2022-12-18T10:40:07;94144.06;;;8.14;75.04
15568;BME280;7885;42.596;23.044;2022-12-18T10:42:34;94144.94;;;8.18;75.17
15568;BME280;7885;42.596;23.044;2022-12-18T10:45:03;94136.38;;;8.16;75.26
15568;BME280;7885;42.596;23.044;2022-12-18T10:47:33;94121.50;;;8.10;75.92
15568;BME280;7885;42.596;23.044;2022-12-18T10:50:01;94154.06;;;8.41;75.03
15568;BME280;7885;42.596;23.044;2022-12-18T10:52:29;94151.97;;;8.50;74.56
15568;BME280;7885;42.596;23.044;2022-12-18T10:54:59;94126.94;;;8.41;73.74
15568;BME280;7885;42.596;23.044;2022-12-18T10:57:33;94157.03;;;8.52;73.27
15568;BME280;7885;42.596;23.044;2022-12-18T11:00:21;94150.75;;;8.32;73.64
15568;BME280;7885;42.596;23.044;2022-12-18T11:02:48;94156.25;;;8.20;72.87
15568;BME280;7885;42.596;23.044;2022-12-18T11:05:29;94160.31;;;8.14;73.70
15568;BME280;7885;42.596;23.044;2022-12-18T11:07:58;94140.72;;;8.05;73.61
15568;BME280;7885;42.596;23.044;2022-12-18T11:10:30;94147.75;;;8.06;73.94
15568;BME280;7885;42.596;23.044;2022-12-18T11:13:12;94166.03;;;8.09;73.11
15568;BME280;7885;42.596;23.044;2022-12-18T11:15:43;94160.84;;;8.04;72.92
15568;BME280;7885;42.596;23.044;2022-12-18T11:18:17;94168.00;;;7.96;73.03
15568;BME280;7885;42.596;23.044;2022-12-18T11:20:50;94168.06;;;7.84;73.00
15568;BME280;7885;42.596;23.044;2022-12-18T11:23:21;94174.78;;;7.75;73.44
15568;BME280;7885;42.596;23.044;2022-12-18T11:26:07;94173.00;;;7.67;73.07
15568;BME280;7885;42.596;23.044;2022-12-18T11:28:36;94165.78;;;7.58;73.22
15568;BME280;7885;42.596;23.044;2022-12-18T11:31:22;94169.84;;;7.65;73.66
15568;BME280;7885;42.596;23.044;2022-12-18T11:34:05;94178.00;;;7.52;73.06
15568;BME280;7885;42.596;23.044;2022-12-18T11:36:39;94177.59;;;7.50;73.79
15568;BME280;7885;42.596;23.044;2022-12-18T11:39:15;94180.50;;;7.57;74.96
15568;BME280;7885;42.596;23.044;2022-12-18T11:41:48;94142.66;;;7.33;74.21
15568;BME280;7885;42.596;23.044;2022-12-18T11:44:38;94186.81;;;7.61;74.58
15568;BME280;7885;42.596;23.044;2022-12-18T11:47:15;94187.09;;;7.72;73.49
15568;BME280;7885;42.596;23.044;2022-12-18T11:49:47;94171.09;;;7.67;73.64
15568;BME280;7885;42.596;23.044;2022-12-18T11:52:18;94186.19;;;7.96;73.32
15568;BME280;7885;42.596;23.044;2022-12-18T11:54:51;94171.25;;;8.02;71.52
15568;BME280;7885;42.596;23.044;2022-12-18T11:57:27;94164.00;;;8.06;70.36
15568;BME280;7885;42.596;23.044;2022-12-18T12:00:03;94173.75;;;8.38;68.83
15568;BME280;7885;42.596;23.044;2022-12-18T12:02:57;94173.94;;;8.61;68.38
15568;BME280;7885;42.596;23.044;2022-12-18T12:05:38;94170.53;;;8.48;66.05
15568;BME280;7885;42.596;23.044;2022-12-18T12:08:12;94176.50;;;8.54;66.78
15568;BME280;7885;42.596;23.044;2022-12-18T12:10:53;94175.69;;;8.53;66.18
15568;BME280;7885;42.596;23.044;2022-12-18T12:13:33;94176.66;;;8.45;65.79
15568;BME280;7885;42.596;23.044;2022-12-18T12:16:10;94174.03;;;8.33;66.65
15568;BME280;7885;42.596;23.044;2022-12-18T12:18:50;94170.66;;;8.24;66.53
15568;BME280;7885;42.596;23.044;2022-12-18T12:21:26;94176.28;;;8.31;67.63
15568;BME280;7885;42.596;23.044;2022-12-18T12:23:59;94143.03;;;8.03;66.82
15568;BME280;7885;42.596;23.044;2022-12-18T12:26:35;94180.03;;;8.27;66.77
15568;BME280;7885;42.596;23.044;2022-12-18T12:32:41;94160.84;;;8.04;67.25
15568;BME280;7885;42.596;23.044;2022-12-18T12:35:19;94174.16;;;8.09;67.51
15568;BME280;7885;42.596;23.044;2022-12-18T12:38:01;94177.81;;;8.01;67.94
15568;BME280;7885;42.596;23.044;2022-12-18T12:40:35;94178.00;;;8.08;67.09
15568;BME280;7885;42.596;23.044;2022-12-18T12:43:12;94189.34;;;7.98;68.11
15568;BME280;7885;42.596;23.044;2022-12-18T12:45:45;94178.59;;;8.01;67.59
15568;BME280;7885;42.596;23.044;2022-12-18T12:48:19;94174.84;;;8.06;67.72
15568;BME280;7885;42.596;23.044;2022-12-18T12:50:48;94175.28;;;8.08;67.75
15568;BME280;7885;42.596;23.044;2022-12-18T12:53:23;94176.78;;;8.21;67.53
15568;BME280;7885;42.596;23.044;2022-12-18T12:55:57;94176.94;;;8.40;67.19
15568;BME280;7885;42.596;23.044;2022-12-18T12:58:33;94178.47;;;8.88;67.18
15568;BME280;7885;42.596;23.044;2022-12-18T13:01:09;94192.03;;;8.88;65.10
15568;BME280;7885;42.596;23.044;2022-12-18T13:03:45;94193.63;;;8.74;64.43
15568;BME280;7885;42.596;23.044;2022-12-18T13:06:23;94184.53;;;8.50;64.98
15568;BME280;7885;42.596;23.044;2022-12-18T13:08:54;94195.03;;;8.36;65.77
15568;BME280;7885;42.596;23.044;2022-12-18T13:11:34;94204.00;;;8.25;66.21
15568;BME280;7885;42.596;23.044;2022-12-18T13:14:29;94198.47;;;8.21;66.68
15568;BME280;7885;42.596;23.044;2022-12-18T13:20:05;94203.50;;;8.07;66.48
15568;BME280;7885;42.596;23.044;2022-12-18T13:22:35;94212.22;;;7.85;66.93
15568;BME280;7885;42.596;23.044;2022-12-18T13:25:03;94209.06;;;7.83;67.58
15568;BME280;7885;42.596;23.044;2022-12-18T13:27:58;94204.44;;;7.83;68.12
15568;BME280;7885;42.596;23.044;2022-12-18T13:30:48;94216.25;;;7.91;67.72
15568;BME280;7885;42.596;23.044;2022-12-18T13:33:48;94216.16;;;7.87;67.89
15568;BME280;7885;42.596;23.044;2022-12-18T13:36:26;94213.91;;;7.89;68.84